Meteo Giornale » Osservazioni meteo Italia » Brescia-Montichiari

ore: 03:50 - Osservazioni Meteo Brescia-Montichiari
Lat. 45° 24' N Lon. 10° 18' E Alt. 104 metri s.l.m.

sereno Europe/Rome

16 °C

Sereno

Temp. 24 Ore

14 °C

27 °C

Est

13 Km/h

Dew point 8 °C

Umidità 58 %

Visibilità  10 Km

Il sole sorge alle ore 06:19

Il sole tramonta alle ore 20:15

Data e Ora Cielo e Fenomeni T °C DP °C Um. % Pres. hPa Vis. km Vento km/h
Oggi h: 03:50 sereno Sereno 16 8 58 1018 10 E 13
Oggi h: 01:50 sereno Sereno 18 11 63 1019 10 E/NE 11.1
Oggi h: 00:50 sereno Sereno 19 11 59 1018 10 E/NE 9.3
Ieri h: 23:50 sereno Sereno 19 11 59 1018 10 NE 11.1
Ieri h: 22:50 sereno Sereno 19 12 63 1018 10 NE 9.3
Ieri h: 21:50 sereno Sereno 21 10 49 1018 10 E/SE 7.4
Ieri h: 20:50 sereno Sereno 23 11 46 1017 10 N 5.5
Ieri h: 19:50 sereno Sereno 25 9 36 1017 10 N 5.5
Ieri h: 18:50 sereno Sereno 26 9 34 1017 10 N 5.5
Ieri h: 17:50 sereno Sereno 27 9 32 1017 10 N 0
Ieri h: 16:50 sereno Sereno 27 10 34 1017 10 SO 11.1
Ieri h: 15:50 sereno Sereno 27 9 32 1018 10 S/SO 9.3
Ieri h: 14:50 sereno Sereno 26 9 34 1019 10 N 5.5
Ieri h: 13:50 sereno Sereno 26 9 34 1019 10 S 7.4
Ieri h: 12:50 sereno Sereno 25 9 36 1020 10 S/SE 7.4
Ieri h: 11:50 sereno Sereno 24 10 41 1021 10 SE 13
Ieri h: 10:50 sereno Sereno 24 7 33 1021 10 E 14.8
Ieri h: 09:50 sereno Sereno 22 8 40 1021 10 E 14.8
Ieri h: 08:50 sereno Sereno 21 8 43 1021 10 E/NE 13
Ieri h: 07:50 sereno Sereno 17 9 59 1021 10 E/NE 9.3
Ieri h: 06:50 sereno Sereno 14 8 67 1020 10 N 5.5
Ieri h: 04:50 sereno Sereno 14 10 76 1020 10 N/NE 9.3